Latest Weather Observations for Moomba Airport

IDS60801

Issued at 5:01 pm CST Friday 29 July 2016 (issued every 30 minutes, with the page automatically refreshed every 10 minutes)

About weather observations | Map of weather stations | Latest weather observations for SA | Other Formats
Station Details ID: 017123 Name: MOOMBA AIRPORT Lat: -28.10 Lon: 140.20 Height: 37.8 m
Data from the previous 72 hours. | See also: Recent months at Moomba Airport
Date/Time
CST
Temp
°C
App
Temp
°C
Dew
Point
°C
Rel
Hum
%
Delta-T
°C
Wind Press
QNH
hPa
Press
MSL
hPa
Rain since
9am
mm
Dir  Spd
km/h
Gust
km/h
Spd
kts
Gust
kts
29/05:00pm 18.9 15.8 3.5 36 7.2 ESE 9 15 5 8 1022.5 1022.6 0.0
29/04:30pm 19.4 16.8 4.0 36 7.3 SE 7 13 4 7 1022.5 1022.6 0.0
29/04:00pm 19.7 16.7 4.2 36 7.4 SE 9 17 5 9 1022.5 1022.6 0.0
29/03:30pm 19.6 16.1 3.7 35 7.5 SE 11 17 6 9 1022.5 1022.6 0.0
29/03:00pm 19.6 16.7 4.5 37 7.3 SE 9 13 5 7 1022.7 1022.8 0.0
29/02:30pm 19.2 15.8 4.2 37 7.1 ESE 11 17 6 9 1022.9 1023.0 0.0
29/02:00pm 19.5 16.7 5.2 39 7.0 E 9 15 5 8 1023.1 1023.2 0.0
29/01:30pm 18.8 16.4 5.3 41 6.5 E 7 13 4 7 1023.4 1023.5 0.0
29/01:00pm 18.4 15.2 5.3 42 6.4 SE 11 15 6 8 1024.1 1024.2 0.0
29/12:30pm 17.6 14.8 5.2 44 5.9 ESE 9 17 5 9 1024.8 1024.8 0.0
29/12:00pm 17.5 14.8 5.4 45 5.8 ENE 9 19 5 10 1025.5 1025.5 0.0
29/11:30am 17.1 13.6 5.4 46 5.6 E 13 17 7 9 1026.1 1026.1 0.0
29/11:00am 16.8 13.3 5.4 47 5.5 ENE 13 17 7 9 1026.7 1026.7 0.0
29/10:30am 16.0 12.5 5.3 49 5.1 E 13 19 7 10 1026.9 1026.9 0.0
29/10:00am 15.8 11.5 5.4 50 5.0 E 17 20 9 11 1026.9 1026.9 0.0
29/09:30am 14.1 10.1 4.9 54 4.3 ENE 15 19 8 10 1026.8 1026.8 0.0
29/09:00am 11.9 7.8 4.4 60 3.4 ENE 15 19 8 10 1026.6 1026.6 0.0
29/08:30am 9.3 5.8 3.5 67 2.5 ENE 11 15 6 8 1026.7 1026.7 0.0
29/08:00am 7.6 3.6 2.7 71 2.1 E 13 15 7 8 1026.4 1026.4 0.0
29/07:30am 6.5 3.2 2.4 75 1.7 ESE 9 13 5 7 1026.4 1026.4 0.0
29/07:00am 5.8 2.4 2.1 77 1.5 ESE 9 11 5 6 1026.2 1026.2 0.0
29/06:30am 6.8 3.1 2.5 74 1.8 SE 11 13 6 7 1025.9 1025.9 0.0
29/06:00am 5.9 2.9 2.0 76 1.6 SE 7 9 4 5 1025.7 1025.7 0.0
29/05:30am 6.2 3.2 2.1 75 1.7 SE 7 9 4 5 1025.5 1025.5 0.0
29/05:00am 6.0 3.0 1.9 75 1.7 SSE 7 9 4 5 1025.5 1025.5 0.0
29/04:30am 5.6 2.7 1.5 75 1.6 S 6 7 3 4 1025.6 1025.6 0.0
29/04:00am 5.5 2.4 1.1 73 1.7 S 7 9 4 5 1025.5 1025.5 0.0
29/03:30am 6.4 3.5 1.5 71 2.0 SE 6 9 3 5 1025.5 1025.5 0.0
29/03:00am 6.0 3.4 1.0 70 2.0 SE 4 6 2 3 1025.5 1025.5 0.0
29/02:30am 7.2 4.3 1.7 68 2.2 SE 6 9 3 5 1025.6 1025.6 0.0
29/02:00am 7.6 4.6 1.9 67 2.3 SE 7 9 4 5 1025.9 1025.9 0.0
29/01:30am 7.8 4.8 2.1 67 2.3 SE 7 9 4 5 1026.2 1026.2 0.0
29/01:00am 8.3 5.3 2.1 65 2.6 SE 7 9 4 5 1026.5 1026.5 0.0
29/12:30am 8.6 5.3 2.2 64 2.7 SE 9 11 5 6 1026.7 1026.7 0.0
29/12:00am 8.0 4.6 1.8 65 2.5 ESE 9 11 5 6 1026.6 1026.6 0.0
 
Date/Time
CST
Temp
°C
App
Temp
°C
Dew
Point
°C
Rel
Hum
%
Delta-T
°C
Wind Press
QNH
hPa
Press
MSL
hPa
Rain since
9am
mm
Dir  Spd
km/h
Gust
km/h
Spd
kts
Gust
kts
28/11:30pm 10.5 6.5 2.6 58 3.4 SE 13 19 7 10 1026.7 1026.7 0.0
28/11:00pm 11.5 7.5 2.8 55 3.8 SE 13 19 7 10 1026.8 1026.8 0.0
28/10:30pm 11.5 7.5 2.8 55 3.8 SSE 13 19 7 10 1027.0 1027.0 0.0
28/10:00pm 12.0 8.0 2.7 53 4.1 SSE 13 17 7 9 1027.0 1027.0 0.0
28/09:30pm 11.9 8.2 2.6 53 4.0 SSE 11 13 6 7 1027.0 1027.0 0.0
28/09:00pm 12.2 8.9 2.6 52 4.2 S 9 13 5 7 1027.0 1027.0 0.0
28/08:30pm 12.8 9.5 2.6 50 4.4 SSE 9 11 5 6 1026.9 1026.9 0.0
28/08:00pm 13.2 8.8 2.7 49 4.6 SE 15 19 8 10 1026.7 1026.7 0.0
28/07:30pm 14.3 10.4 3.2 47 5.0 SSE 13 17 7 9 1026.7 1026.7 0.0
28/07:00pm 14.7 11.1 3.2 46 5.2 SSE 11 17 6 9 1026.5 1026.5 0.0
28/06:30pm 15.9 11.6 3.0 42 5.8 SSE 15 19 8 10 1026.4 1026.4 0.0
28/06:00pm 15.7 12.1 2.8 42 5.8 SE 11 15 6 8 1026.3 1026.3 0.0
28/05:30pm 16.7 12.7 3.1 40 6.2 SSE 13 17 7 9 1026.2 1026.2 0.0
28/05:00pm 17.4 13.4 3.0 38 6.6 SSE 13 19 7 10 1025.9 1025.9 0.0
28/04:30pm 17.8 12.7 2.9 37 6.8 SSE 19 24 10 13 1025.7 1025.7 0.0
28/04:00pm 18.0 14.1 3.5 38 6.8 SSE 13 17 7 9 1025.8 1025.8 0.0
28/03:30pm 17.9 14.0 3.4 38 6.7 SSE 13 20 7 11 1025.9 1025.9 0.0
28/03:00pm 17.9 13.3 3.8 39 6.6 SSE 17 28 9 15 1025.9 1025.9 0.0
28/02:30pm 18.0 14.3 4.2 40 6.5 SSE 13 19 7 10 1026.2 1026.2 0.0
28/02:00pm 17.5 13.4 4.1 41 6.3 SE 15 22 8 12 1026.6 1026.6 0.0
28/01:30pm 17.4 13.4 4.7 43 6.0 SE 15 22 8 12 1027.1 1027.1 0.0
28/01:00pm 17.0 13.0 5.0 45 5.7 SE 15 24 8 13 1027.6 1027.6 0.0
28/12:30pm 16.5 12.9 4.9 46 5.5 SE 13 20 7 11 1028.1 1028.1 0.0
28/12:00pm 16.5 11.7 4.9 46 5.5 ESE 19 24 10 13 1028.6 1028.6 0.0
28/11:30am 16.1 11.8 5.1 48 5.2 ESE 17 22 9 12 1029.2 1029.2 0.0
28/11:00am 15.6 11.3 5.2 50 4.9 E 17 22 9 12 1029.9 1029.9 0.0
28/10:30am 15.2 10.6 5.7 53 4.5 ESE 19 26 10 14 1030.3 1030.3 0.0
28/10:00am 14.0 9.2 5.6 57 4.0 E 20 26 11 14 1030.3 1030.3 0.0
28/09:30am 12.7 7.8 5.1 60 3.5 E 20 24 11 13 1030.4 1030.4 0.0
28/09:00am 11.4 7.9 5.3 66 2.8 ESE 13 19 7 10 1030.4 1030.4 0.0
28/08:30am 9.6 6.0 4.8 72 2.1 ESE 13 17 7 9 1030.1 1030.1 0.0
28/08:00am 7.3 4.3 4.1 80 1.4 SSE 9 13 5 7 1029.9 1029.9 0.0
28/07:30am 5.1 2.3 3.1 87 0.8 SSW 7 9 4 5 1029.6 1029.6 0.0
28/07:00am 5.2 2.4 3.2 87 0.8 S 7 9 4 5 1029.0 1029.0 0.0
28/06:30am 5.8 2.3 3.5 85 1.0 S 11 15 6 8 1028.5 1028.5 0.0
28/06:00am 6.0 2.2 3.7 85 1.0 S 13 15 7 8 1028.0 1028.0 0.0
28/05:30am 6.2 3.1 3.7 84 1.0 S 9 11 5 6 1027.7 1027.7 0.0
28/05:00am 6.1 3.5 3.3 82 1.2 SSE 6 9 3 5 1027.4 1027.4 0.0
28/04:30am 6.4 3.9 3.9 84 1.1 SE 6 7 3 4 1027.2 1027.2 0.0
28/04:00am 5.2 2.0 2.9 85 0.9 ESE 9 11 5 6 1026.9 1026.9 0.0
28/03:30am 5.9 2.7 3.2 83 1.1 ESE 9 11 5 6 1026.7 1026.7 0.0
28/03:00am 6.2 3.0 3.0 80 1.3 E 9 11 5 6 1026.7 1026.7 0.0
28/02:30am 7.3 4.7 3.4 76 1.6 ESE 6 7 3 4 1026.7 1026.7 0.0
28/02:00am 7.9 5.3 3.4 73 1.9 ESE 6 9 3 5 1027.0 1027.0 0.0
28/01:30am 9.9 6.6 4.5 69 2.4 SSE 11 19 6 10 1026.9 1026.9 0.0
28/01:00am 10.3 6.3 4.7 68 2.5 SSE 15 20 8 11 1026.8 1026.8 0.0
28/12:30am 10.3 6.6 4.5 67 2.6 SSE 13 17 7 9 1027.0 1027.0 0.0
28/12:00am 10.8 7.1 4.7 66 2.7 SSE 13 17 7 9 1027.1 1027.1 0.0
 
Date/Time
CST
Temp
°C
App
Temp
°C
Dew
Point
°C
Rel
Hum
%
Delta-T
°C
Wind Press
QNH
hPa
Press
MSL
hPa
Rain since
9am
mm
Dir  Spd
km/h
Gust
km/h
Spd
kts
Gust
kts
27/11:30pm 11.1 7.0 4.6 64 2.9 SSE 15 19 8 10 1027.0 1027.0 0.0
27/11:00pm 11.3 7.6 4.5 63 3.1 SSE 13 17 7 9 1027.3 1027.3 0.0
27/10:30pm 11.6 7.5 4.3 61 3.3 SSE 15 20 8 11 1027.3 1027.3 0.0
27/10:00pm 12.3 7.9 4.8 60 3.4 SSE 17 20 9 11 1027.2 1027.2 0.0
27/09:30pm 12.3 8.2 4.3 58 3.6 S 15 19 8 10 1027.1 1027.1 0.0
27/09:00pm 12.8 9.1 4.3 56 3.8 S 13 19 7 10 1027.2 1027.2 0.0
27/08:30pm 13.3 9.2 4.2 54 4.1 S 15 20 8 11 1027.0 1027.0 0.0
27/08:00pm 13.4 8.8 3.5 51 4.5 S 17 20 9 11 1026.9 1026.9 0.0
27/07:30pm 13.2 10.0 3.3 51 4.4 S 9 13 5 7 1026.5 1026.5 0.0
27/07:00pm 13.8 10.4 3.9 51 4.5 SSW 11 15 6 8 1026.1 1026.1 0.0
27/06:30pm 14.3 11.3 4.0 50 4.7 SSW 9 13 5 7 1025.6 1025.6 0.0
27/06:00pm 15.8 12.8 4.2 46 5.4 SSW 9 11 5 6 1025.1 1025.1 0.0
27/05:30pm 16.9 13.5 3.9 42 6.0 S 11 17 6 9 1024.6 1024.6 0.0
27/05:00pm 17.6 13.8 3.9 40 6.4 S 13 20 7 11 1024.1 1024.2 0.0
27/04:30pm 17.8 13.6 4.0 40 6.5 S 15 20 8 11 1023.9 1024.0 0.0
27/04:00pm 18.1 13.7 4.7 41 6.4 S 17 24 9 13 1023.9 1024.0 0.0
27/03:30pm 18.2 13.9 5.1 42 6.3 S 17 24 9 13 1023.7 1023.8 0.0
27/03:00pm 18.2 13.9 5.4 43 6.2 S 17 26 9 14 1023.4 1023.5 0.0
27/02:30pm 18.4 15.3 5.6 43 6.2 S 11 17 6 9 1023.2 1023.3 0.0
27/02:00pm 17.9 14.5 5.8 45 5.9 S 13 20 7 11 1023.3 1023.4 0.0
27/01:30pm 17.9 14.5 6.1 46 5.8 S 13 19 7 10 1023.4 1023.5 0.0
27/01:00pm 17.4 13.3 6.0 47 5.6 SSE 17 24 9 13 1023.8 1023.9 0.0
27/12:30pm 17.0 13.0 6.8 51 5.0 S 17 26 9 14 1024.1 1024.2 0.0
27/12:00pm 16.9 12.6 7.0 52 4.9 S 19 32 10 17 1024.6 1024.6 0.0
27/11:30am 16.4 11.9 7.1 54 4.6 SSW 20 26 11 14 1024.7 1024.7 0.0
27/11:00am 15.9 11.4 7.1 56 4.4 SSW 20 28 11 15 1024.9 1024.9 0.0
27/10:30am 15.2 10.3 7.0 58 4.0 SW 22 30 12 16 1024.9 1024.9 0.0
27/10:00am 14.6 9.7 6.9 60 3.8 SW 22 30 12 16 1024.8 1024.8 0.0
27/09:30am 13.7 8.8 6.8 63 3.3 SW 22 30 12 16 1024.4 1024.4 0.0
27/09:00am 12.1 6.9 5.7 65 3.0 WSW 22 28 12 15 1024.1 1024.2 0.0
27/08:30am 10.7 6.8 5.3 69 2.5 WSW 15 22 8 12 1023.9 1024.0 0.0
27/08:00am 8.4 4.7 4.2 75 1.8 W 13 17 7 9 1023.8 1023.9 0.0
27/07:30am 7.4 3.6 4.0 79 1.5 WNW 13 17 7 9 1023.4 1023.5 0.0
27/07:00am 7.0 2.8 3.6 79 1.4 W 15 19 8 10 1023.1 1023.2 0.0
27/06:30am 7.5 3.3 3.9 78 1.5 W 15 20 8 11 1022.6 1022.7 0.0
27/06:00am 6.9 2.7 3.7 80 1.4 W 15 17 8 9 1022.3 1022.4 0.0
27/05:30am 7.2 3.3 3.4 77 1.6 W 13 17 7 9 1022.1 1022.2 0.0
27/05:00am 7.2 2.9 3.4 77 1.6 W 15 17 8 9 1021.7 1021.8 0.0
27/04:30am 7.1 3.2 3.3 77 1.6 W 13 15 7 8 1021.2 1021.3 0.0
27/04:00am 7.5 3.2 3.4 75 1.7 W 15 17 8 9 1021.1 1021.2 0.0
27/03:30am 7.3 3.4 3.2 75 1.7 W 13 13 7 7 1021.2 1021.3 0.0
27/03:00am 7.6 4.0 3.1 73 1.9 W 11 13 6 7 1021.1 1021.2 0.0
27/02:30am 8.8 4.5 3.4 69 2.3 W 15 17 8 9 1021.0 1021.1 0.0
27/02:00am 8.8 4.5 3.2 68 2.4 WNW 15 20 8 11 1021.1 1021.2 0.0
27/01:30am 9.0 4.7 3.2 67 2.5 WNW 15 19 8 10 1021.0 1021.1 0.0
27/01:00am 10.0 5.7 3.5 64 2.8 WNW 15 19 8 10 1020.9 1021.0 0.0
27/12:30am 10.9 6.3 3.7 61 3.2 NW 17 19 9 10 1020.8 1020.9 0.0
27/12:00am 10.8 5.8 3.6 61 3.2 NW 19 20 10 11 1020.8 1020.9 0.0
 
Date/Time
CST
Temp
°C
App
Temp
°C
Dew
Point
°C
Rel
Hum
%
Delta-T
°C
Wind Press
QNH
hPa
Press
MSL
hPa
Rain since
9am
mm
Dir  Spd
km/h
Gust
km/h
Spd
kts
Gust
kts
26/11:30pm 10.3 6.0 3.1 61 3.1 NW 15 17 8 9 1021.0 1021.1 0.0
26/11:00pm 10.6 6.3 3.2 60 3.2 WNW 15 17 8 9 1021.2 1021.3 0.0
26/10:30pm 10.4 6.1 3.0 60 3.2 WNW 15 17 8 9 1021.0 1021.1 0.0
26/10:00pm 11.0 6.6 2.8 57 3.6 WNW 15 17 8 9 1021.1 1021.2 0.0
26/09:30pm 11.3 7.0 3.1 57 3.6 WNW 15 17 8 9 1021.0 1021.1 0.0
26/09:00pm 12.1 7.8 3.1 54 4.0 WNW 15 20 8 11 1021.1 1021.2 0.0
26/08:30pm 13.1 8.5 3.5 52 4.3 NW 17 19 9 10 1020.9 1021.0 0.0
26/08:00pm 13.0 8.3 3.4 52 4.3 NW 17 19 9 10 1020.7 1020.8 0.0
26/07:30pm 13.1 8.8 3.5 52 4.3 NW 15 17 8 9 1020.3 1020.3 0.0
26/07:00pm 13.8 9.6 3.9 51 4.5 NW 15 17 8 9 1019.9 1019.9 0.0
26/06:30pm 14.2 10.0 3.9 50 4.7 NW 15 15 8 8 1019.5 1019.5 0.0
26/06:00pm 16.1 12.3 3.9 44 5.6 WNW 13 15 7 8 1019.4 1019.4 0.0
26/05:30pm 17.7 14.0 4.3 41 6.3 WNW 13 17 7 9 1019.2 1019.2 0.0

Other Formats:

Comma delimited format used in spreadsheet applications
http://www.bom.gov.au/fwo/IDS60801/IDS60801.95481.axf

JavaScript Object Notation format (JSON) in row-major order
http://www.bom.gov.au/fwo/IDS60801/IDS60801.95481.json